createdAt,value
2023-03-29T00:02:37.598Z,101359.13
2023-03-29T00:07:35.663Z,101355.84
2023-03-29T00:12:32.761Z,101369.59
2023-03-29T00:17:29.892Z,101328.50
2023-03-29T00:22:26.655Z,101385.22
2023-03-29T00:27:24.036Z,101411.97
2023-03-29T00:32:21.128Z,101400.97
2023-03-29T00:37:18.550Z,101325.34
2023-03-29T00:42:17.105Z,101417.41
2023-03-29T00:47:15.177Z,101411.56
2023-03-29T00:52:14.081Z,101426.22
2023-03-29T00:57:13.319Z,101341.09
2023-03-29T01:02:11.100Z,101344.69
2023-03-29T01:07:12.899Z,101371.41
2023-03-29T01:12:13.784Z,101367.22
2023-03-29T01:17:10.707Z,101430.03
2023-03-29T01:22:18.647Z,101340.66
2023-03-29T01:27:22.169Z,101420.72
2023-03-29T01:32:24.485Z,101359.59
2023-03-29T01:37:27.184Z,101408.69
2023-03-29T01:42:32.236Z,101403.53
2023-03-29T01:47:39.243Z,101328.03
2023-03-29T01:52:40.447Z,101396.03
2023-03-29T01:57:41.860Z,101405.63
2023-03-29T02:02:43.388Z,101380.63
2023-03-29T02:07:43.007Z,101397.16
2023-03-29T02:12:43.142Z,101392.00
2023-03-29T02:17:43.068Z,101430.88
2023-03-29T02:22:47.489Z,101430.94
2023-03-29T02:27:45.958Z,101458.56
2023-03-29T02:32:50.648Z,101336.50
2023-03-29T02:37:53.877Z,101395.88
2023-03-29T02:42:50.762Z,101418.38
2023-03-29T02:47:51.873Z,101458.78
2023-03-29T02:52:54.538Z,101377.09
2023-03-29T02:57:51.570Z,101449.41
2023-03-29T03:02:51.452Z,101481.28
2023-03-29T03:07:51.306Z,101431.59
2023-03-29T03:13:04.639Z,101478.22
2023-03-29T03:18:04.294Z,101523.91
2023-03-29T03:23:03.000Z,101480.84
2023-03-29T03:28:21.359Z,101462.84
2023-03-29T03:33:20.225Z,101535.25
2023-03-29T03:38:49.315Z,101527.53
2023-03-29T03:43:48.395Z,101548.31
2023-03-29T03:48:47.468Z,101517.34
2023-03-29T03:53:51.790Z,101464.84
2023-03-29T03:59:11.135Z,101553.69
2023-03-29T04:04:19.831Z,101518.50
2023-03-29T04:09:37.019Z,101568.59
2023-03-29T04:15:07.415Z,101553.13
2023-03-29T04:20:12.085Z,101579.81
2023-03-29T04:25:10.981Z,101608.28
2023-03-29T04:30:16.978Z,101568.59
2023-03-29T04:35:42.494Z,101587.56
2023-03-29T04:40:44.269Z,101609.84
2023-03-29T04:46:02.588Z,101562.38
2023-03-29T04:51:23.842Z,101547.72
2023-03-29T04:56:23.459Z,101638.22
2023-03-29T05:01:43.358Z,101642.63
2023-03-29T05:06:41.796Z,101644.31
2023-03-29T05:11:38.771Z,101649.25
2023-03-29T05:16:37.548Z,101656.09
2023-03-29T05:21:36.048Z,101615.19
2023-03-29T05:26:37.901Z,101660.66
2023-03-29T05:31:34.869Z,101663.09
2023-03-29T05:36:31.934Z,101649.00
2023-03-29T05:41:29.441Z,101662.44
2023-03-29T05:46:45.818Z,101640.75
2023-03-29T05:51:46.687Z,101633.38
2023-03-29T05:56:43.895Z,101620.38
2023-03-29T06:01:41.216Z,101651.75
2023-03-29T06:06:41.459Z,101655.03
2023-03-29T06:11:38.646Z,101677.69
2023-03-29T06:16:54.408Z,101678.84
2023-03-29T06:21:53.158Z,101679.59
2023-03-29T06:26:54.221Z,101672.88
2023-03-29T06:31:51.760Z,101665.06
2023-03-29T06:37:22.663Z,101677.84
2023-03-29T06:42:27.877Z,101651.13
2023-03-29T06:47:43.122Z,101672.50
2023-03-29T06:52:41.266Z,101614.44
2023-03-29T06:57:39.349Z,101628.63
2023-03-29T07:02:37.139Z,101619.53
2023-03-29T07:07:56.236Z,101657.41
2023-03-29T07:13:12.737Z,101658.91
2023-03-29T07:18:11.818Z,101671.78
2023-03-29T07:23:10.723Z,101675.25
2023-03-29T07:28:12.104Z,101673.31
2023-03-29T07:33:09.572Z,101626.38
2023-03-29T07:38:16.150Z,101613.56
2023-03-29T07:43:19.144Z,101594.31
2023-03-29T07:48:17.312Z,101626.38
2023-03-29T07:53:22.537Z,101662.53
2023-03-29T07:58:21.350Z,101650.47
2023-03-29T08:03:18.597Z,101634.91
2023-03-29T08:08:15.729Z,101668.78
2023-03-29T08:13:27.601Z,101604.25
2023-03-29T08:18:50.873Z,101660.97
2023-03-29T08:23:49.871Z,101609.50
2023-03-29T08:28:52.093Z,101616.97
2023-03-29T08:33:50.928Z,101639.13
2023-03-29T08:39:10.748Z,101632.06
2023-03-29T08:44:22.451Z,101646.28
2023-03-29T08:49:29.200Z,101582.03
2023-03-29T08:54:29.839Z,101644.97
2023-03-29T08:59:57.257Z,101588.31
2023-03-29T09:05:00.527Z,101572.78
2023-03-29T09:10:05.046Z,101624.16
2023-03-29T09:15:15.849Z,101632.53
2023-03-29T09:20:29.842Z,101647.06
2023-03-29T09:25:50.789Z,101658.69
2023-03-29T09:30:58.122Z,101617.22
2023-03-29T09:36:01.810Z,101688.59
2023-03-29T09:41:06.221Z,101648.31
2023-03-29T09:46:15.223Z,101657.28
2023-03-29T09:51:14.014Z,101711.16
2023-03-29T09:56:11.141Z,101670.91
2023-03-29T10:01:21.745Z,101662.09
2023-03-29T10:06:23.842Z,101682.41
2023-03-29T10:11:31.275Z,101712.03
2023-03-29T10:16:34.741Z,101660.69
2023-03-29T10:21:31.771Z,101691.81
2023-03-29T10:26:33.841Z,101646.19
2023-03-29T10:31:32.425Z,101674.66
2023-03-29T10:36:30.232Z,101712.75
2023-03-29T10:41:29.969Z,101683.38
2023-03-29T10:46:30.136Z,101679.84
2023-03-29T10:51:29.954Z,101674.03
2023-03-29T10:56:39.495Z,101671.06
2023-03-29T11:01:50.272Z,101604.97
2023-03-29T11:06:58.320Z,101654.88
2023-03-29T11:12:15.484Z,101654.69
2023-03-29T11:17:27.181Z,101643.16
2023-03-29T11:22:36.182Z,101580.13
2023-03-29T11:27:38.617Z,101637.28
2023-03-29T11:32:45.253Z,101587.72
2023-03-29T11:37:50.796Z,101599.97
2023-03-29T11:42:52.193Z,101630.66
2023-03-29T11:47:52.787Z,101648.19
2023-03-29T11:52:54.392Z,101629.75
2023-03-29T11:57:55.994Z,101571.59
2023-03-29T12:02:57.775Z,101577.41
2023-03-29T12:08:00.871Z,101629.09
2023-03-29T12:13:01.351Z,101596.63
2023-03-29T12:18:06.449Z,101558.25
2023-03-29T12:23:06.106Z,101630.81
2023-03-29T12:28:25.679Z,101650.75
2023-03-29T12:34:02.836Z,101646.44
2023-03-29T12:39:37.398Z,101623.78
2023-03-29T12:44:59.484Z,101648.63
2023-03-29T12:50:03.981Z,101647.16
2023-03-29T12:55:17.324Z,101587.53
2023-03-29T13:00:22.511Z,101618.19
2023-03-29T13:05:32.644Z,101630.09
2023-03-29T13:10:41.340Z,101643.16
2023-03-29T13:15:39.294Z,101629.69
2023-03-29T13:20:45.312Z,101522.34
2023-03-29T13:25:58.910Z,101651.84
2023-03-29T13:31:00.312Z,101642.00
2023-03-29T13:36:03.515Z,101634.34
2023-03-29T13:41:03.930Z,101499.00
2023-03-29T13:46:16.086Z,101630.94
2023-03-29T13:51:26.686Z,101630.16
2023-03-29T13:56:28.040Z,101623.03
2023-03-29T14:01:29.007Z,101606.22
2023-03-29T14:06:30.500Z,101557.09
2023-03-29T14:11:29.913Z,101620.94
2023-03-29T14:16:28.884Z,101602.03
2023-03-29T14:21:26.051Z,101659.81
2023-03-29T14:26:24.464Z,101649.00
2023-03-29T14:31:24.605Z,101670.38
2023-03-29T14:36:25.876Z,101621.44
2023-03-29T14:41:24.405Z,101662.53
2023-03-29T14:46:22.716Z,101570.72
2023-03-29T14:51:24.248Z,101667.66
2023-03-29T14:56:24.774Z,101559.69
2023-03-29T15:01:24.755Z,101632.13
2023-03-29T15:06:24.325Z,101610.25
2023-03-29T15:11:23.742Z,101612.28
2023-03-29T15:16:23.473Z,101680.06
2023-03-29T15:21:22.427Z,101668.69
2023-03-29T15:26:22.818Z,101639.75
2023-03-29T15:31:23.109Z,101649.84
2023-03-29T15:36:20.881Z,101693.03
2023-03-29T15:41:17.991Z,101668.47
2023-03-29T15:46:16.944Z,101690.22
2023-03-29T15:51:14.172Z,101661.13
2023-03-29T15:56:17.647Z,101670.78
2023-03-29T16:01:33.743Z,101723.81
2023-03-29T16:06:31.385Z,101721.44
2023-03-29T16:11:32.097Z,101604.13
2023-03-29T16:16:29.327Z,101640.47
2023-03-29T16:21:26.662Z,101681.22
2023-03-29T16:26:25.575Z,101742.44
2023-03-29T16:31:26.201Z,101712.00
2023-03-29T16:36:23.186Z,101757.91
2023-03-29T16:41:20.985Z,101751.38
2023-03-29T16:46:18.265Z,101613.28
2023-03-29T16:51:16.922Z,101635.97
2023-03-29T16:56:14.698Z,101735.06
2023-03-29T17:01:13.513Z,101738.88
2023-03-29T17:06:11.871Z,101757.25
2023-03-29T17:11:10.904Z,101767.16
2023-03-29T17:16:10.021Z,101808.84
2023-03-29T17:21:15.636Z,101774.75
2023-03-29T17:26:13.613Z,101709.19
2023-03-29T17:31:10.981Z,101719.13
2023-03-29T17:36:09.003Z,101824.47
2023-03-29T17:41:07.690Z,101880.53
2023-03-29T17:46:06.568Z,101876.19
2023-03-29T17:51:03.571Z,101881.88
2023-03-29T17:56:02.032Z,101928.97
2023-03-29T18:00:59.233Z,101910.34
2023-03-29T18:05:59.682Z,101857.13
2023-03-29T18:11:05.918Z,101935.97
2023-03-29T18:16:03.715Z,101941.38
2023-03-29T18:21:01.859Z,101893.22
2023-03-29T18:26:00.473Z,101808.78
2023-03-29T18:30:57.993Z,101888.38
2023-03-29T18:35:59.134Z,101898.84
2023-03-29T18:40:56.908Z,101853.22
2023-03-29T18:45:54.222Z,101888.66
2023-03-29T18:50:52.128Z,101937.16
2023-03-29T18:55:49.132Z,101947.41
2023-03-29T19:00:46.931Z,101911.16
2023-03-29T19:05:43.922Z,101908.50
2023-03-29T19:10:40.730Z,101962.00
2023-03-29T19:15:39.807Z,101929.00
2023-03-29T19:20:38.348Z,101958.19
2023-03-29T19:25:35.419Z,101933.84
2023-03-29T19:30:35.369Z,101905.28
2023-03-29T19:35:32.572Z,101900.88
2023-03-29T19:40:30.491Z,101972.59
2023-03-29T19:45:27.828Z,101969.13
2023-03-29T19:50:25.866Z,101971.69
2023-03-29T19:55:23.185Z,101955.25
2023-03-29T20:00:23.976Z,101956.13
2023-03-29T20:05:21.141Z,101908.63
2023-03-29T20:10:18.291Z,101973.47
2023-03-29T20:15:15.939Z,101950.19
2023-03-29T20:20:13.775Z,101913.09
2023-03-29T20:25:10.935Z,101922.66
2023-03-29T20:30:09.124Z,101912.25
2023-03-29T20:35:06.610Z,101971.94
2023-03-29T20:40:05.086Z,101896.03
2023-03-29T20:45:02.638Z,101961.75
2023-03-29T20:50:02.881Z,101922.06
2023-03-29T20:55:00.052Z,101897.03
2023-03-29T20:59:58.574Z,101936.78
2023-03-29T21:05:01.672Z,101946.34
2023-03-29T21:10:00.446Z,101914.44
2023-03-29T21:14:58.456Z,101952.53
2023-03-29T21:19:55.441Z,101939.63
2023-03-29T21:24:52.222Z,101943.19
2023-03-29T21:29:49.024Z,101924.19
2023-03-29T21:34:46.630Z,101978.66
2023-03-29T21:39:43.542Z,101971.69
2023-03-29T21:44:40.345Z,101971.69
2023-03-29T21:49:37.464Z,101967.34
2023-03-29T21:54:34.899Z,101969.09
2023-03-29T21:59:31.725Z,101976.94
2023-03-29T22:04:36.636Z,101980.38
2023-03-29T22:09:35.419Z,101919.06
2023-03-29T22:14:34.321Z,101971.81
2023-03-29T22:19:31.377Z,101956.25
2023-03-29T22:24:28.707Z,101985.63
2023-03-29T22:29:26.217Z,101982.13
2023-03-29T22:34:23.078Z,101919.00
2023-03-29T22:39:20.322Z,101973.47
2023-03-29T22:44:17.812Z,101970.91
2023-03-29T22:49:15.449Z,101887.94
2023-03-29T22:54:12.246Z,101912.19
2023-03-29T22:59:09.045Z,101976.22
2023-03-29T23:04:05.802Z,101984.88
2023-03-29T23:09:03.357Z,101990.94
2023-03-29T23:14:03.979Z,101970.19
2023-03-29T23:19:00.842Z,101939.97
2023-03-29T23:23:57.716Z,101982.44
2023-03-29T23:28:56.868Z,101998.13
2023-03-29T23:33:54.446Z,102005.94
2023-03-29T23:38:52.926Z,101999.88
2023-03-29T23:43:50.948Z,102004.31
2023-03-29T23:48:50.210Z,102002.63
2023-03-29T23:53:47.442Z,101965.47
2023-03-29T23:58:44.373Z,101981.94
